Millenium Air

Millenium Air Since 1998



 METAR AND TAF INFORMATION
METAR FOR LDRI
ADDS - METARS form results

(0038 UTC 27 January 2021)
Data provider http://aviationweather.gov/metar/data/
 
METAR text: LDRI 270030Z VRB01KT CAVOK 02/M04 Q1016
Conditions at: LDRI (RIJEKA/OMISALJ , HR) observed 0030 UTC 27 January 2021
Temperature: 2.0°C (36°F)
Dewpoint: -4.0°C (25°F) [RH = 64%]
Pressure (altimeter): 30.00 inches Hg (1016.0 mb)
Winds: variable direction winds at 1 MPH (1 knots; 0.5 m/s)
Visibility: 6 or more miles (10+ km)
Ceiling: ceiling and visibility are OK
Clouds: unknown
Weather: no significant weather observed at this time

METAR text: LDRI 270000Z 11004KT CAVOK 01/M05 Q1016
Conditions at: LDRI (RIJEKA/OMISALJ , HR) observed 0000 UTC 27 January 2021
Temperature: 1.0°C (34°F)
Dewpoint: -5.0°C (23°F) [RH = 64%]
Pressure (altimeter): 30.00 inches Hg (1016.0 mb)
Winds: from the ESE (110 degrees) at 5 MPH (4 knots; 2.1 m/s)
Visibility: 6 or more miles (10+ km)
Ceiling: ceiling and visibility are OK
Clouds: unknown
Weather: no significant weather observed at this time

Forecast for: LDRI (RIJEKA/OMISALJ , HR)
Text: TAF LDRI 262325Z 2700/2800 VRB02KT CAVOK TX08/2712Z TNM02/2705Z
Forecast period: 0000 UTC 27 January 2021 to 0000 UTC 28 January 2021
Forecast type: FROM: standard forecast or significant change
Winds: variable direction winds at 2 MPH (2 knots; 1.0 m/s)
Visibility: 6 or more miles (10+ km)
Ceiling: unknown
Clouds: missing
Weather: no significant weather forecast for this period

 AIRPORT MAP

 RUNWAY INFORMATION
Runway 14 Runway length 8164 ft Runway width 148 ft
Runway elevation 264 ft Runway displaced threshold 0 ft Runway heading 144
Runway 32 Runway length 8164 ft Runway width 148 ft
Runway elevation 246 ft Runway displaced threshold 0 ft Runway heading 324

 AIRPORT FREQUENCIES
Type APP Name APP Frequency 119 MHZ
Type TWR Name TWR Frequency 119 MHZ

 AIRPORT NEAR NAVIGATION AIDS
Type NDB Name Breza Frequency 400 KHZ
Type NDB Name Kozala Frequency 438 KHZ
Type VOR-DME Name Rijeka Frequency 117800 KHZ